Time;durP1;ratioP1;P1;durP2;ratioP2;P2;SDS_P1;SDS_P2;PMS_P1;PMS_P2;Temp;Humidity;BMP_temperature;BMP_pressure;BME280_temperature;BME280_humidity;BME280_pressure;Samples;Min_cycle;Max_cycle;Signal;HPM_P1;HPM_P2
2022/07/19 00:00:48;;;;;;;;;;;;;;;;;;10463698;28;20012;-64
2022/07/19 00:05:50;;;;;;;;;;;;;;;;;;10462777;28;20376;-65
2022/07/19 00:10:52;;;;;;;;;;;;;;;;;;10463256;28;19929;-65
2022/07/19 00:15:57;;;;;;;;;;;;;;;;;;10462285;28;20368;-65
2022/07/19 00:20:59;;;;;;;;;;;;;;;;;;10462229;28;20422;-65
2022/07/19 00:26:01;;;;;;;;;;;;;;;;;;10462587;28;19925;-65
2022/07/19 00:31:04;;;;;;;;;;;;;;;;;;10461844;28;20367;-65
2022/07/19 00:36:06;;;;;;;;;;;;;;;;;;10461603;28;20040;-65
2022/07/19 00:41:08;;;;;;;;;;;;;;;;;;10461498;28;20260;-65
2022/07/19 00:46:10;;;;;;;;;;;;;;;;;;10461447;28;19925;-64
2022/07/19 00:51:12;;;;;;;;;;;;;;;;;;10461714;28;19932;-65
2022/07/19 00:56:15;;;;;;;;;;;;;;;;;;10460848;28;19947;-65
2022/07/19 01:01:17;;;;;;;;;;;;;;;;;;10460774;28;20368;-65
2022/07/19 01:06:19;;;;;;;;;;;;;;;;;;10460624;28;19925;-65
2022/07/19 01:11:21;;;;;;;;;;;;;;;;;;10460951;28;19925;-64
2022/07/19 01:16:23;;;;;;;;;;;;;;;;;;10460109;28;19943;-64
2022/07/19 01:21:26;;;;;;;;;;;;;;;;;;10459405;28;19964;-64
2022/07/19 01:26:28;;;;;;;;;;;;;;;;;;10460278;28;19968;-65
2022/07/19 01:31:30;;;;;;;;;;;;;;;;;;10458376;28;20368;-65
2022/07/19 01:36:33;;;;;;;;;;;;;;;;;;10459295;28;19929;-64
2022/07/19 01:41:35;;;;;;;;;;;;;;;;;;10459735;28;19932;-65
2022/07/19 01:46:37;;;;;;;;;;;;;;;;;;10458808;28;20330;-64
2022/07/19 01:51:39;;;;;;;;;;;;;;;;;;10458711;28;19925;-65
2022/07/19 01:56:41;;;;;;;;;;;;;;;;;;10459128;28;19932;-64
2022/07/19 02:01:43;;;;;;;;;;;;;;;;;;10458913;28;20010;-64
2022/07/19 02:06:46;;;;;;;;;;;;;;;;;;10458671;28;19924;-65
2022/07/19 02:11:48;;;;;;;;;;;;;;;;;;10458589;28;19924;-65
2022/07/19 02:16:50;;;;;;;;;;;;;;;;;;10455722;28;19924;-65
2022/07/19 02:21:52;;;;;;;;;;;;;;;;;;10458212;28;19951;-64
2022/07/19 02:26:54;;;;;;;;;;;;;;;;;;10457980;28;19925;-64
2022/07/19 02:31:56;;;;;;;;;;;;;;;;;;10457873;28;19931;-64
2022/07/19 02:36:58;;;;;;;;;;;;;;;;;;10457750;28;19925;-64
2022/07/19 02:42:00;;;;;;;;;;;;;;;;;;10456970;28;19932;-64
2022/07/19 02:47:03;;;;;;;;;;;;;;;;;;10457423;28;19943;-64
2022/07/19 02:52:05;;;;;;;;;;;;;;;;;;10457446;28;19935;-64
2022/07/19 02:57:07;;;;;;;;;;;;;;;;;;10456651;28;20284;-64
2022/07/19 03:02:09;;;;;;;;;;;;;;;;;;10457165;28;19933;-64
2022/07/19 03:07:11;;;;;;;;;;;;;;;;;;10457050;28;19931;-64
2022/07/19 03:12:13;;;;;;;;;;;;;;;;;;10456956;28;19929;-64
2022/07/19 03:17:15;;;;;;;;;;;;;;;;;;10456146;28;19925;-64
2022/07/19 03:22:17;;;;;;;;;;;;;;;;;;10456737;28;19932;-64
2022/07/19 03:27:20;;;;;;;;;;;;;;;;;;10460902;28;19925;-64
2022/07/19 03:32:22;;;;;;;;;;;;;;;;;;10464164;28;20269;-64
2022/07/19 03:37:24;;;;;;;;;;;;;;;;;;10464566;28;19935;-64
2022/07/19 03:42:26;;;;;;;;;;;;;;;;;;10464367;28;19925;-64
2022/07/19 03:47:28;;;;;;;;;;;;;;;;;;10463471;28;19925;-64
2022/07/19 03:52:30;;;;;;;;;;;;;;;;;;10464037;28;19925;-64
2022/07/19 03:57:32;;;;;;;;;;;;;;;;;;10463835;28;19925;-64
2022/07/19 04:02:34;;;;;;;;;;;;;;;;;;10463596;28;19936;-64
2022/07/19 04:07:36;;;;;;;;;;;;;;;;;;10463413;28;20000;-64
2022/07/19 04:12:38;;;;;;;;;;;;;;;;;;10463032;28;19939;-64
2022/07/19 04:17:40;;;;;;;;;;;;;;;;;;10461936;28;19935;-64
2022/07/19 04:22:42;;;;;;;;;;;;;;;;;;10462816;28;19925;-64
2022/07/19 04:27:45;;;;;;;;;;;;;;;;;;10462619;28;19924;-64
2022/07/19 04:32:47;;;;;;;;;;;;;;;;;;10460666;28;19925;-64
2022/07/19 04:37:49;;;;;;;;;;;;;;;;;;10461442;28;19925;-64
2022/07/19 04:42:51;;;;;;;;;;;;;;;;;;10462451;28;19924;-64
2022/07/19 04:47:53;;;;;;;;;;;;;;;;;;10462002;28;19925;-64
2022/07/19 04:52:55;;;;;;;;;;;;;;;;;;10460498;28;19931;-64
2022/07/19 04:57:57;;;;;;;;;;;;;;;;;;10460879;28;19925;-64
2022/07/19 05:02:59;;;;;;;;;;;;;;;;;;10460122;28;19928;-64
2022/07/19 05:08:01;;;;;;;;;;;;;;;;;;10460427;28;19932;-64
2022/07/19 05:13:03;;;;;;;;;;;;;;;;;;10460891;28;19953;-64
2022/07/19 05:18:05;;;;;;;;;;;;;;;;;;10460732;28;19925;-64
2022/07/19 05:23:07;;;;;;;;;;;;;;;;;;10459854;28;20376;-64
2022/07/19 05:28:09;;;;;;;;;;;;;;;;;;10460220;28;19925;-65
2022/07/19 05:33:12;;;;;;;;;;;;;;;;;;10460115;28;19931;-64
2022/07/19 05:38:14;;;;;;;;;;;;;;;;;;10459891;28;19935;-65
2022/07/19 05:43:17;;;;;;;;;;;;;;;;;;10459051;28;19947;-64
2022/07/19 05:48:19;;;;;;;;;;;;;;;;;;10458151;28;19924;-65
2022/07/19 05:53:21;;;;;;;;;;;;;;;;;;10458238;28;19925;-64
2022/07/19 05:58:24;;;;;;;;;;;;;;;;;;10459034;28;19925;-65
2022/07/19 06:03:29;;;;;;;;;;;;;;;;;;10458341;28;20299;-64
2022/07/19 06:08:31;;;;;;;;;;;;;;;;;;10458649;28;19925;-65
2022/07/19 06:13:33;;;;;;;;;;;;;;;;;;10458219;28;19935;-64
2022/07/19 06:18:36;;;;;;;;;;;;;;;;;;10457767;28;19931;-65
2022/07/19 06:23:38;;;;;;;;;;;;;;;;;;10457623;28;19931;-64
2022/07/19 06:28:40;;;;;;;;;;;;;;;;;;10457950;28;19925;-65
2022/07/19 06:33:42;;;;;;;;;;;;;;;;;;10458020;28;19929;-65
2022/07/19 06:38:45;;;;;;;;;;;;;;;;;;10457776;28;19929;-65
2022/07/19 06:43:47;;;;;;;;;;;;;;;;;;10457605;28;19932;-65
2022/07/19 06:48:49;;;;;;;;;;;;;;;;;;10456733;28;19925;-65
2022/07/19 06:53:51;;;;;;;;;;;;;;;;;;10457404;28;19925;-65
2022/07/19 06:58:53;;;;;;;;;;;;;;;;;;10456606;28;20299;-66
2022/07/19 07:03:55;;;;;;;;;;;;;;;;;;10456698;28;19932;-66
2022/07/19 07:08:57;;;;;;;;;;;;;;;;;;10456305;28;19924;-65
2022/07/19 07:13:59;;;;;;;;;;;;;;;;;;10456587;28;19932;-65
2022/07/19 07:19:01;;;;;;;;;;;;;;;;;;10456257;28;19925;-66
2022/07/19 07:24:04;;;;;;;;;;;;;;;;;;10456726;28;19925;-66
2022/07/19 07:29:06;;;;;;;;;;;;;;;;;;10456629;28;19931;-66
2022/07/19 07:34:08;;;;;;;;;;;;;;;;;;10456494;28;19924;-66
2022/07/19 07:39:10;;;;;;;;;;;;;;;;;;10454651;28;19932;-65
2022/07/19 07:44:12;;;;;;;;;;;;;;;;;;10455723;28;19925;-66
2022/07/19 07:49:14;;;;;;;;;;;;;;;;;;10455533;28;20287;-66
2022/07/19 07:54:16;;;;;;;;;;;;;;;;;;10455502;28;19924;-66
2022/07/19 07:59:19;;;;;;;;;;;;;;;;;;10455454;28;19940;-66
2022/07/19 08:04:21;;;;;;;;;;;;;;;;;;10455916;28;19936;-66
2022/07/19 08:09:23;;;;;;;;;;;;;;;;;;10455759;28;19925;-66
2022/07/19 08:14:25;;;;;;;;;;;;;;;;;;10458078;28;19935;-66
2022/07/19 08:19:27;;;;;;;;;;;;;;;;;;10462961;28;19932;-66
2022/07/19 08:24:29;;;;;;;;;;;;;;;;;;10462068;28;19948;-67
2022/07/19 08:29:31;;;;;;;;;;;;;;;;;;10461902;28;19924;-67
2022/07/19 08:34:33;;;;;;;;;;;;;;;;;;10461133;28;19924;-67
2022/07/19 08:39:35;;;;;;;;;;;;;;;;;;10462206;28;19928;-67
2022/07/19 08:44:39;;;;;;;;;;;;;;;;;;10461899;28;19932;-67
2022/07/19 08:49:41;;;;;;;;;;;;;;;;;;10461000;28;20372;-67
2022/07/19 08:54:43;;;;;;;;;;;;;;;;;;10461509;28;19925;-67
2022/07/19 08:59:46;;;;;;;;;;;;;;;;;;10461187;28;19929;-67
2022/07/19 09:04:48;;;;;;;;;;;;;;;;;;10461149;28;19931;-68
2022/07/19 09:09:50;;;;;;;;;;;;;;;;;;10459888;28;19929;-67
2022/07/19 09:14:52;;;;;;;;;;;;;;;;;;10460019;28;20292;-67
2022/07/19 09:19:54;;;;;;;;;;;;;;;;;;10460159;28;19932;-67
2022/07/19 09:24:56;;;;;;;;;;;;;;;;;;10459534;28;20394;-67
2022/07/19 09:30:00;;;;;;;;;;;;;;;;;;10446773;22;20284;-67
2022/07/19 09:35:02;;;;;;;;;;;;;;;;;;10401400;28;19925;-67
2022/07/19 09:40:04;;;;;;;;;;;;;;;;;;10418606;28;19936;-67
2022/07/19 09:45:06;;;;;;;;;;;;;;;;;;10401381;28;19933;-67
2022/07/19 09:50:08;;;;;;;;;;;;;;;;;;10417328;28;19947;-67
2022/07/19 09:55:10;;;;;;;;;;;;;;;;;;10418714;28;19925;-68
2022/07/19 10:00:12;;;;;;;;;;;;;;;;;;10417855;28;19933;-67
2022/07/19 10:05:15;;;;;;;;;;;;;;;;;;10417062;28;20288;-67
2022/07/19 10:10:17;;;;;;;;;;;;;;;;;;10417651;28;19929;-67
2022/07/19 10:15:19;;;;;;;;;;;;;;;;;;10417049;28;20279;-68
2022/07/19 10:20:21;;;;;;;;;;;;;;;;;;10417137;28;19931;-68
2022/07/19 10:25:23;;;;;;;;;;;;;;;;;;10417028;28;19925;-67
2022/07/19 10:30:25;;;;;;;;;;;;;;;;;;10415930;28;19925;-67
2022/07/19 10:35:28;;;;;;;;;;;;;;;;;;10415431;28;20300;-67
2022/07/19 10:40:30;;;;;;;;;;;;;;;;;;10399109;28;19925;-67
2022/07/19 10:45:32;;;;;;;;;;;;;;;;;;10415761;28;19925;-68
2022/07/19 10:50:34;;;;;;;;;;;;;;;;;;10415582;28;20280;-68
2022/07/19 10:55:36;;;;;;;;;;;;;;;;;;10415552;28;20257;-68
2022/07/19 11:00:38;;;;;;;;;;;;;;;;;;10415424;28;19925;-68
2022/07/19 11:05:40;;;;;;;;;;;;;;;;;;10415334;28;20007;-68
2022/07/19 11:10:42;;;;;;;;;;;;;;;;;;10415768;28;19925;-68
2022/07/19 11:15:45;;;;;;;;;;;;;;;;;;10415823;28;19925;-68
2022/07/19 11:20:53;;;;;;;;;;;;;;;;;;10415062;28;19925;-68
2022/07/19 11:25:55;;;;;;;;;;;;;;;;;;10414998;28;19925;-68
2022/07/19 11:30:57;;;;;;;;;;;;;;;;;;10414750;28;19929;-68
2022/07/19 11:35:59;;;;;;;;;;;;;;;;;;10415310;28;19932;-68
2022/07/19 11:41:01;;;;;;;;;;;;;;;;;;10415184;28;20028;-68
2022/07/19 11:46:03;;;;;;;;;;;;;;;;;;10416004;28;19929;-68
2022/07/19 11:51:06;;;;;;;;;;;;;;;;;;10422231;28;19948;-68
2022/07/19 11:56:08;;;;;;;;;;;;;;;;;;10422071;28;20392;-68
2022/07/19 12:01:10;;;;;;;;;;;;;;;;;;10421805;28;20391;-68
2022/07/19 12:06:12;;;;;;;;;;;;;;;;;;10422436;28;19925;-68
2022/07/19 12:11:14;;;;;;;;;;;;;;;;;;10421386;28;19947;-68
2022/07/19 12:16:16;;;;;;;;;;;;;;;;;;10421292;28;19973;-68
2022/07/19 12:21:18;;;;;;;;;;;;;;;;;;10404193;28;19925;-68
2022/07/19 12:26:21;;;;;;;;;;;;;;;;;;10420946;28;20288;-68
2022/07/19 12:31:43;;;;;;;;;;;;;;;;;;10420400;28;20368;-68
2022/07/19 12:36:46;;;;;;;;;;;;;;;;;;10403040;28;20377;-68
2022/07/19 12:41:49;;;;;;;;;;;;;;;;;;10402730;28;19925;-68
2022/07/19 12:46:51;;;;;;;;;;;;;;;;;;10420017;28;19925;-68
2022/07/19 12:52:11;;;;;;;;;;;;;;;;;;10419838;28;19928;-68
2022/07/19 12:57:13;;;;;;;;;;;;;;;;;;10420381;28;19931;-68
2022/07/19 13:02:15;;;;;;;;;;;;;;;;;;10402031;28;19929;-68
2022/07/19 13:07:18;;;;;;;;;;;;;;;;;;10419874;28;19936;-69
2022/07/19 13:12:20;;;;;;;;;;;;;;;;;;10419646;28;19931;-68
2022/07/19 13:17:23;;;;;;;;;;;;;;;;;;10419588;28;19925;-68
2022/07/19 13:22:25;;;;;;;;;;;;;;;;;;10401844;28;19925;-68
2022/07/19 13:27:27;;;;;;;;;;;;;;;;;;10400894;28;20276;-68
2022/07/19 13:32:29;;;;;;;;;;;;;;;;;;10419004;28;19932;-68
2022/07/19 13:37:31;;;;;;;;;;;;;;;;;;10418814;28;19925;-68
2022/07/19 13:42:33;;;;;;;;;;;;;;;;;;10418592;28;19932;-68
2022/07/19 13:47:38;;;;;;;;;;;;;;;;;;10417733;28;19925;-68
2022/07/19 13:52:40;;;;;;;;;;;;;;;;;;10417490;28;20279;-68
2022/07/19 13:57:42;;;;;;;;;;;;;;;;;;10417250;28;20364;-68
2022/07/19 14:02:44;;;;;;;;;;;;;;;;;;10417679;28;19925;-67
2022/07/19 14:07:46;;;;;;;;;;;;;;;;;;10416948;28;20292;-68
2022/07/19 14:12:49;;;;;;;;;;;;;;;;;;10415820;28;20265;-68
2022/07/19 14:18:09;;;;;;;;;;;;;;;;;;10417153;28;19932;-68
2022/07/19 14:23:11;;;;;;;;;;;;;;;;;;10417011;28;19927;-68
2022/07/19 14:28:14;;;;;;;;;;;;;;;;;;10416478;28;19925;-68
2022/07/19 14:33:16;;;;;;;;;;;;;;;;;;10416024;28;19948;-67
2022/07/19 14:38:18;;;;;;;;;;;;;;;;;;10415923;28;20372;-68
2022/07/19 14:43:20;;;;;;;;;;;;;;;;;;10415850;28;19932;-68
2022/07/19 14:48:22;;;;;;;;;;;;;;;;;;10415599;28;20395;-68
2022/07/19 14:53:24;;;;;;;;;;;;;;;;;;10415542;28;19925;-68
2022/07/19 14:58:26;;;;;;;;;;;;;;;;;;10415355;28;20375;-68
2022/07/19 15:03:28;;;;;;;;;;;;;;;;;;10415575;28;19936;-68
2022/07/19 15:08:30;;;;;;;;;;;;;;;;;;10415859;28;20036;-68
2022/07/19 15:13:32;;;;;;;;;;;;;;;;;;10415831;28;19925;-68
2022/07/19 15:18:34;;;;;;;;;;;;;;;;;;10415064;28;19925;-68
2022/07/19 15:23:40;;;;;;;;;;;;;;;;;;10419811;28;20369;-68
2022/07/19 15:28:43;;;;;;;;;;;;;;;;;;10423340;28;19931;-68
2022/07/19 15:33:45;;;;;;;;;;;;;;;;;;10406161;28;19925;-67
2022/07/19 15:38:47;;;;;;;;;;;;;;;;;;10423354;28;19925;-68
2022/07/19 15:43:49;;;;;;;;;;;;;;;;;;10422548;28;19932;-68
2022/07/19 15:48:51;;;;;;;;;;;;;;;;;;10422930;28;19932;-67
2022/07/19 15:53:54;;;;;;;;;;;;;;;;;;10422773;28;19925;-67
2022/07/19 15:58:56;;;;;;;;;;;;;;;;;;10421959;28;20265;-68
2022/07/19 16:03:58;;;;;;;;;;;;;;;;;;10422426;28;19929;-67
2022/07/19 16:09:00;;;;;;;;;;;;;;;;;;10421488;28;19929;-67
2022/07/19 16:14:02;;;;;;;;;;;;;;;;;;10422031;28;19936;-68
2022/07/19 16:19:04;;;;;;;;;;;;;;;;;;10421823;28;19936;-67
2022/07/19 16:24:08;;;;;;;;;;;;;;;;;;10420986;28;20373;-67
2022/07/19 16:29:10;;;;;;;;;;;;;;;;;;10420548;28;20284;-67
2022/07/19 16:34:12;;;;;;;;;;;;;;;;;;10402718;28;20000;-67
2022/07/19 16:39:14;;;;;;;;;;;;;;;;;;10420513;28;20434;-67
2022/07/19 16:44:36;;;;;;;;;;;;;;;;;;10420990;28;19960;-67
2022/07/19 16:49:38;;;;;;;;;;;;;;;;;;10420016;28;19935;-67
2022/07/19 16:54:40;;;;;;;;;;;;;;;;;;10419954;28;19931;-67
2022/07/19 16:59:42;;;;;;;;;;;;;;;;;;10420425;28;19936;-67
2022/07/19 17:04:45;;;;;;;;;;;;;;;;;;10412154;28;19932;-67
2022/07/19 17:09:47;;;;;;;;;;;;;;;;;;10419293;28;19975;-67
2022/07/19 17:15:01;;;;;;;;;;;;;;;;;;10419826;28;19925;-67
2022/07/19 17:20:03;;;;;;;;;;;;;;;;;;10402096;28;19932;-68
2022/07/19 17:25:05;;;;;;;;;;;;;;;;;;10419303;28;19925;-67
2022/07/19 17:30:07;;;;;;;;;;;;;;;;;;10418565;28;19931;-67
2022/07/19 17:35:09;;;;;;;;;;;;;;;;;;10418986;28;19937;-67
2022/07/19 17:40:11;;;;;;;;;;;;;;;;;;10418143;28;20304;-67
2022/07/19 17:45:14;;;;;;;;;;;;;;;;;;10418324;28;19925;-67
2022/07/19 17:50:17;;;;;;;;;;;;;;;;;;10418091;28;19933;-67
2022/07/19 17:55:19;;;;;;;;;;;;;;;;;;10418090;28;19944;-67
2022/07/19 18:00:21;;;;;;;;;;;;;;;;;;10417337;28;20006;-67
2022/07/19 18:05:23;;;;;;;;;;;;;;;;;;10417160;28;20373;-67
2022/07/19 18:10:27;;;;;;;;;;;;;;;;;;10416830;28;20302;-67
2022/07/19 18:15:29;;;;;;;;;;;;;;;;;;10417410;28;19937;-67
2022/07/19 18:20:31;;;;;;;;;;;;;;;;;;10417224;28;19955;-67
2022/07/19 18:25:33;;;;;;;;;;;;;;;;;;10416444;28;19925;-67
2022/07/19 18:30:35;;;;;;;;;;;;;;;;;;10415983;28;20285;-67
2022/07/19 18:35:38;;;;;;;;;;;;;;;;;;10416717;28;19979;-67
2022/07/19 18:40:40;;;;;;;;;;;;;;;;;;10416531;28;19929;-67
2022/07/19 18:45:42;;;;;;;;;;;;;;;;;;10416372;28;19932;-66
2022/07/19 18:50:44;;;;;;;;;;;;;;;;;;10408177;28;19925;-67
2022/07/19 18:55:46;;;;;;;;;;;;;;;;;;10415670;28;19925;-66
2022/07/19 19:00:48;;;;;;;;;;;;;;;;;;10416077;28;19931;-67
2022/07/19 19:05:58;;;;;;;;;;;;;;;;;;10399618;28;19932;-66
2022/07/19 19:11:01;;;;;;;;;;;;;;;;;;10415806;28;20347;-66
2022/07/19 19:16:03;;;;;;;;;;;;;;;;;;10415156;28;20316;-66
2022/07/19 19:21:06;;;;;;;;;;;;;;;;;;10415066;28;20415;-67
2022/07/19 19:26:08;;;;;;;;;;;;;;;;;;10415587;28;19925;-66
2022/07/19 19:31:10;;;;;;;;;;;;;;;;;;10414777;28;19962;-66
2022/07/19 19:36:13;;;;;;;;;;;;;;;;;;10414635;28;20332;-66
2022/07/19 19:41:15;;;;;;;;;;;;;;;;;;10415295;28;19925;-66
2022/07/19 19:46:19;;;;;;;;;;;;;;;;;;10414574;28;20300;-67
2022/07/19 19:51:21;;;;;;;;;;;;;;;;;;10414433;28;20380;-67
2022/07/19 19:56:23;;;;;;;;;;;;;;;;;;10397624;28;19940;-66
2022/07/19 20:01:25;;;;;;;;;;;;;;;;;;10414927;28;19929;-66
2022/07/19 20:06:27;;;;;;;;;;;;;;;;;;10414757;28;19929;-67
2022/07/19 20:11:29;;;;;;;;;;;;;;;;;;10421744;28;19929;-66
2022/07/19 20:16:32;;;;;;;;;;;;;;;;;;10422069;28;19925;-66
2022/07/19 20:21:34;;;;;;;;;;;;;;;;;;10421882;28;19925;-66
2022/07/19 20:26:36;;;;;;;;;;;;;;;;;;10421094;28;19932;-66
2022/07/19 20:31:38;;;;;;;;;;;;;;;;;;10420544;28;19925;-66
2022/07/19 20:36:41;;;;;;;;;;;;;;;;;;10421551;28;19926;-66
2022/07/19 20:41:43;;;;;;;;;;;;;;;;;;10420595;28;19932;-66
2022/07/19 20:46:45;;;;;;;;;;;;;;;;;;10420288;28;19932;-66
2022/07/19 20:51:49;;;;;;;;;;;;;;;;;;10420725;28;19932;-66
2022/07/19 20:56:51;;;;;;;;;;;;;;;;;;10420563;28;19932;-66
2022/07/19 21:01:58;;;;;;;;;;;;;;;;;;10420268;28;19926;-66
2022/07/19 21:07:00;;;;;;;;;;;;;;;;;;10419631;28;19929;-66
2022/07/19 21:12:02;;;;;;;;;;;;;;;;;;10419237;28;20288;-66
2022/07/19 21:17:04;;;;;;;;;;;;;;;;;;10419098;28;19932;-66
2022/07/19 21:22:06;;;;;;;;;;;;;;;;;;10418906;28;19925;-66
2022/07/19 21:27:09;;;;;;;;;;;;;;;;;;10419027;28;19925;-66
2022/07/19 21:32:11;;;;;;;;;;;;;;;;;;10418262;28;19936;-66
2022/07/19 21:37:13;;;;;;;;;;;;;;;;;;10418221;28;19932;-66
2022/07/19 21:42:15;;;;;;;;;;;;;;;;;;10418573;28;19925;-66
2022/07/19 21:47:17;;;;;;;;;;;;;;;;;;10501012;23;19925;-69
2022/07/19 21:52:19;;;;;;;;;;;;;;;;;;10500940;28;19931;-68
2022/07/19 21:57:21;;;;;;;;;;;;;;;;;;10500705;28;19928;-68
2022/07/19 22:02:26;;;;;;;;;;;;;;;;;;10500583;28;19924;-68
2022/07/19 22:07:29;;;;;;;;;;;;;;;;;;10500399;28;20007;-68
2022/07/19 22:12:31;;;;;;;;;;;;;;;;;;10499526;28;19924;-68
2022/07/19 22:17:33;;;;;;;;;;;;;;;;;;10500064;28;19932;-68
2022/07/19 22:22:35;;;;;;;;;;;;;;;;;;10499215;28;19925;-68
2022/07/19 22:27:37;;;;;;;;;;;;;;;;;;10499722;28;19925;-68
2022/07/19 22:32:39;;;;;;;;;;;;;;;;;;10498083;28;20291;-68
2022/07/19 22:37:42;;;;;;;;;;;;;;;;;;10499603;28;19932;-68
2022/07/19 22:42:44;;;;;;;;;;;;;;;;;;10498550;28;20390;-68
2022/07/19 22:47:46;;;;;;;;;;;;;;;;;;10499165;28;19924;-68
2022/07/19 22:52:48;;;;;;;;;;;;;;;;;;10498983;28;19932;-68
2022/07/19 22:57:50;;;;;;;;;;;;;;;;;;10498323;28;20391;-68
2022/07/19 23:02:52;;;;;;;;;;;;;;;;;;10498147;28;19947;-68
2022/07/19 23:07:55;;;;;;;;;;;;;;;;;;10498762;28;19974;-68
2022/07/19 23:12:57;;;;;;;;;;;;;;;;;;10498575;28;19925;-68
2022/07/19 23:17:59;;;;;;;;;;;;;;;;;;10497949;28;19947;-68
2022/07/19 23:23:01;;;;;;;;;;;;;;;;;;10497788;28;19931;-68
2022/07/19 23:28:03;;;;;;;;;;;;;;;;;;10498343;28;19935;-68
2022/07/19 23:33:05;;;;;;;;;;;;;;;;;;10497534;28;20260;-68
2022/07/19 23:38:07;;;;;;;;;;;;;;;;;;10497528;28;20374;-68
2022/07/19 23:43:10;;;;;;;;;;;;;;;;;;10500181;28;19924;-68
2022/07/19 23:48:15;;;;;;;;;;;;;;;;;;10505985;28;19935;-68
2022/07/19 23:53:18;;;;;;;;;;;;;;;;;;10505060;28;20371;-68
2022/07/19 23:58:20;;;;;;;;;;;;;;;;;;10487876;28;19931;-69
